createdAt,value
2023-05-19T00:00:28.619Z,10.30
2023-05-19T00:02:57.279Z,10.20
2023-05-19T00:05:25.851Z,10.20
2023-05-19T00:07:57.936Z,10.20
2023-05-19T00:10:30.374Z,10.30
2023-05-19T00:12:59.459Z,10.30
2023-05-19T00:15:29.336Z,10.30
2023-05-19T00:17:57.332Z,10.40
2023-05-19T00:20:25.270Z,10.50
2023-05-19T00:22:53.158Z,10.50
2023-05-19T00:25:21.055Z,10.60
2023-05-19T00:27:49.021Z,10.60
2023-05-19T00:30:17.236Z,10.60
2023-05-19T00:32:46.516Z,10.70
2023-05-19T00:35:14.618Z,10.60
2023-05-19T00:37:42.502Z,10.60
2023-05-19T00:40:11.777Z,10.70
2023-05-19T00:42:40.119Z,10.70
2023-05-19T00:45:08.915Z,10.70
2023-05-19T00:47:37.058Z,10.60
2023-05-19T00:50:07.071Z,10.60
2023-05-19T00:52:35.077Z,10.60
2023-05-19T00:55:03.092Z,10.60
2023-05-19T00:57:31.176Z,10.50
2023-05-19T00:59:59.094Z,10.50
2023-05-19T01:02:29.719Z,10.40
2023-05-19T01:04:59.056Z,10.40
2023-05-19T01:07:29.001Z,10.30
2023-05-19T01:09:57.622Z,10.20
2023-05-19T01:12:25.978Z,10.20
2023-05-19T01:14:53.987Z,10.10
2023-05-19T01:17:30.386Z,10.10
2023-05-19T01:20:05.583Z,10.20
2023-05-19T01:22:56.572Z,10.20
2023-05-19T01:25:48.578Z,10.20
2023-05-19T01:28:41.014Z,10.30
2023-05-19T01:31:11.947Z,10.30
2023-05-19T01:33:42.143Z,10.30
2023-05-19T01:36:11.571Z,10.30
2023-05-19T01:38:40.564Z,10.40
2023-05-19T01:41:09.276Z,10.40
2023-05-19T01:43:37.306Z,10.40
2023-05-19T01:46:06.571Z,10.50
2023-05-19T01:48:36.720Z,10.40
2023-05-19T01:51:04.902Z,10.40
2023-05-19T01:53:32.967Z,10.40
2023-05-19T01:56:01.394Z,10.50
2023-05-19T01:58:39.734Z,10.50
2023-05-19T02:01:17.515Z,10.50
2023-05-19T02:04:02.903Z,10.50
2023-05-19T02:06:38.095Z,10.50
2023-05-19T02:09:12.994Z,10.50
2023-05-19T02:11:45.828Z,10.50
2023-05-19T02:14:20.393Z,10.40
2023-05-19T02:16:50.283Z,10.40
2023-05-19T02:19:24.693Z,10.40
2023-05-19T02:21:52.793Z,10.40
2023-05-19T02:24:22.801Z,10.40
2023-05-19T02:26:51.833Z,10.30
2023-05-19T02:29:20.346Z,10.30
2023-05-19T02:31:48.474Z,10.30
2023-05-19T02:34:16.489Z,10.30
2023-05-19T02:36:45.768Z,10.30
2023-05-19T02:39:13.870Z,10.30
2023-05-19T02:41:41.806Z,10.30
2023-05-19T02:44:09.778Z,10.20
2023-05-19T02:46:37.722Z,10.20
2023-05-19T02:49:05.688Z,10.20
2023-05-19T02:51:33.581Z,10.20
2023-05-19T02:54:02.808Z,10.30
2023-05-19T02:56:30.891Z,10.30
2023-05-19T02:58:59.137Z,10.30
2023-05-19T03:01:27.151Z,10.30
2023-05-19T03:03:55.168Z,10.40
2023-05-19T03:06:24.257Z,10.30
2023-05-19T03:08:52.190Z,10.30
2023-05-19T03:11:23.236Z,10.20
2023-05-19T03:13:51.181Z,10.20
2023-05-19T03:16:19.158Z,10.20
2023-05-19T03:18:47.363Z,10.10
2023-05-19T03:21:15.384Z,10.00
2023-05-19T03:23:43.395Z,10.00
2023-05-19T03:26:11.303Z,10.00
2023-05-19T03:28:40.603Z,10.00
2023-05-19T03:31:08.509Z,10.00
2023-05-19T03:33:36.481Z,9.90
2023-05-19T03:36:05.086Z,9.90
2023-05-19T03:38:32.959Z,9.80
2023-05-19T03:41:00.867Z,9.80
2023-05-19T03:43:28.815Z,9.70
2023-05-19T03:45:58.115Z,9.60
2023-05-19T03:48:26.724Z,9.60
2023-05-19T03:50:54.716Z,9.60
2023-05-19T03:53:22.648Z,9.60
2023-05-19T03:55:50.845Z,9.60
2023-05-19T03:58:18.889Z,9.50
2023-05-19T04:00:46.819Z,9.50
2023-05-19T04:03:16.207Z,9.50
2023-05-19T04:05:44.324Z,9.50
2023-05-19T04:08:12.252Z,9.50
2023-05-19T04:10:42.149Z,9.50
2023-05-19T04:13:10.307Z,9.40
2023-05-19T04:15:38.349Z,9.50
2023-05-19T04:18:06.389Z,9.40
2023-05-19T04:20:35.740Z,9.40
2023-05-19T04:23:03.856Z,9.40
2023-05-19T04:25:31.827Z,9.40
2023-05-19T04:28:00.950Z,9.50
2023-05-19T04:30:29.223Z,9.50
2023-05-19T04:32:58.160Z,9.50
2023-05-19T04:35:26.604Z,9.50
2023-05-19T04:37:55.864Z,9.60
2023-05-19T04:40:23.982Z,9.60
2023-05-19T04:42:52.197Z,9.70
2023-05-19T04:45:20.151Z,9.70
2023-05-19T04:47:49.082Z,9.80
2023-05-19T04:50:17.272Z,9.90
2023-05-19T04:52:45.734Z,9.90
2023-05-19T04:55:15.294Z,10.00
2023-05-19T04:57:43.297Z,10.00
2023-05-19T05:00:14.091Z,10.10
2023-05-19T05:02:42.868Z,10.00
2023-05-19T05:05:11.126Z,10.00
2023-05-19T05:07:39.093Z,10.00
2023-05-19T05:10:08.515Z,10.00
2023-05-19T05:12:42.270Z,10.10
2023-05-19T05:15:12.175Z,10.10
2023-05-19T05:17:40.715Z,10.20
2023-05-19T05:20:09.694Z,10.30
2023-05-19T05:22:38.612Z,10.30
2023-05-19T05:25:07.848Z,10.40
2023-05-19T05:27:35.817Z,10.50
2023-05-19T05:30:05.829Z,10.60
2023-05-19T05:32:34.114Z,10.70
2023-05-19T05:35:02.121Z,10.70
2023-05-19T05:37:30.246Z,10.70
2023-05-19T05:39:58.196Z,10.80
2023-05-19T05:42:27.669Z,10.90
2023-05-19T05:44:57.492Z,11.10
2023-05-19T05:47:27.696Z,11.10
2023-05-19T05:49:56.275Z,11.20
2023-05-19T05:52:29.976Z,11.20
2023-05-19T05:54:58.585Z,11.20
2023-05-19T05:57:27.031Z,11.30
2023-05-19T05:59:55.482Z,11.30
2023-05-19T06:02:23.629Z,11.40
2023-05-19T06:04:54.128Z,11.50
2023-05-19T06:07:22.755Z,11.70
2023-05-19T06:09:50.700Z,11.80
2023-05-19T06:12:18.625Z,11.90
2023-05-19T06:14:46.562Z,11.90
2023-05-19T06:17:14.466Z,11.90
2023-05-19T06:19:42.425Z,11.90
2023-05-19T06:22:11.731Z,12.00
2023-05-19T06:24:39.861Z,12.10
2023-05-19T06:27:07.734Z,12.30
2023-05-19T06:29:35.824Z,12.40
2023-05-19T06:32:03.901Z,12.60
2023-05-19T06:34:32.291Z,12.60
2023-05-19T06:37:02.325Z,12.60
2023-05-19T06:39:31.599Z,12.80
2023-05-19T06:41:59.666Z,13.00
2023-05-19T06:44:27.705Z,13.00
2023-05-19T06:46:55.621Z,13.10
2023-05-19T06:49:24.038Z,13.00
2023-05-19T06:51:52.144Z,13.10
2023-05-19T06:54:20.069Z,13.10
2023-05-19T06:56:49.329Z,13.20
2023-05-19T06:59:17.247Z,13.50
2023-05-19T07:01:45.206Z,13.60
2023-05-19T07:04:13.374Z,13.80
2023-05-19T07:06:41.337Z,14.10
2023-05-19T07:09:11.483Z,14.10
2023-05-19T07:11:40.025Z,14.00
2023-05-19T07:14:09.369Z,14.30
2023-05-19T07:16:37.332Z,14.70
2023-05-19T07:19:05.410Z,14.70
2023-05-19T07:21:33.416Z,14.90
2023-05-19T07:24:01.520Z,15.30
2023-05-19T07:26:30.437Z,15.50
2023-05-19T07:28:58.407Z,15.50
2023-05-19T07:31:27.673Z,15.30
2023-05-19T07:33:55.742Z,15.50
2023-05-19T07:36:23.731Z,15.50
2023-05-19T07:38:51.841Z,15.00
2023-05-19T07:41:19.832Z,14.80
2023-05-19T07:43:47.867Z,15.00
2023-05-19T07:46:15.869Z,15.30
2023-05-19T07:48:45.682Z,15.70
2023-05-19T07:51:13.906Z,15.80
2023-05-19T07:53:41.885Z,15.80
2023-05-19T07:56:09.826Z,15.70
2023-05-19T07:58:37.839Z,15.70
2023-05-19T08:01:06.089Z,16.00
2023-05-19T08:03:34.824Z,15.80
2023-05-19T08:06:04.433Z,15.40
2023-05-19T08:08:33.366Z,15.30
2023-05-19T08:11:03.966Z,15.50
2023-05-19T08:13:32.233Z,15.50
2023-05-19T08:16:00.659Z,15.30
2023-05-19T08:18:28.733Z,15.30
2023-05-19T08:20:56.651Z,15.30
2023-05-19T08:23:26.012Z,15.40
2023-05-19T08:25:53.969Z,15.50
2023-05-19T08:28:21.899Z,15.70
2023-05-19T08:30:52.237Z,15.90
2023-05-19T08:33:21.426Z,15.60
2023-05-19T08:35:49.607Z,15.50
2023-05-19T08:38:17.590Z,15.50
2023-05-19T08:40:48.278Z,15.70
2023-05-19T08:43:16.258Z,15.80
2023-05-19T08:45:46.501Z,15.90
2023-05-19T08:48:15.583Z,16.10
2023-05-19T08:50:49.174Z,16.40
2023-05-19T08:56:10.199Z,16.30
2023-05-19T08:58:40.432Z,16.60
2023-05-19T09:01:09.549Z,16.50
2023-05-19T09:03:41.357Z,16.60
2023-05-19T09:06:10.248Z,16.40
2023-05-19T09:08:38.252Z,16.00
2023-05-19T09:11:07.600Z,16.00
2023-05-19T09:13:35.628Z,16.20
2023-05-19T09:16:04.316Z,16.30
2023-05-19T09:18:32.346Z,16.30
2023-05-19T09:21:02.824Z,15.90
2023-05-19T09:23:33.450Z,15.90
2023-05-19T09:26:05.039Z,15.80
2023-05-19T09:28:36.386Z,15.70
2023-05-19T09:31:05.661Z,15.50
2023-05-19T09:33:35.498Z,15.50
2023-05-19T09:36:05.963Z,15.30
2023-05-19T09:38:34.088Z,15.00
2023-05-19T09:41:02.422Z,14.90
2023-05-19T09:43:30.943Z,15.10
2023-05-19T09:46:04.642Z,15.50
2023-05-19T09:48:32.607Z,15.80
2023-05-19T09:51:02.281Z,16.30
2023-05-19T09:53:32.562Z,16.60
2023-05-19T09:56:03.433Z,16.60
2023-05-19T09:58:34.591Z,16.40
2023-05-19T10:01:06.385Z,16.60
2023-05-19T10:03:35.219Z,16.80
2023-05-19T10:06:04.954Z,16.70
2023-05-19T10:08:36.013Z,16.70
2023-05-19T10:11:04.859Z,16.60
2023-05-19T10:13:34.887Z,16.80
2023-05-19T10:16:06.157Z,16.90
2023-05-19T10:18:37.462Z,16.80
2023-05-19T10:21:08.269Z,16.80
2023-05-19T10:23:37.983Z,16.20
2023-05-19T10:26:07.484Z,15.80
2023-05-19T10:28:39.126Z,15.20
2023-05-19T10:31:16.895Z,15.10
2023-05-19T10:34:01.854Z,15.10
2023-05-19T10:36:45.905Z,15.00
2023-05-19T10:39:19.917Z,14.90
2023-05-19T10:41:58.886Z,15.20
2023-05-19T10:44:41.730Z,15.70
2023-05-19T10:47:12.132Z,16.40
2023-05-19T10:49:41.128Z,17.00
2023-05-19T10:52:22.986Z,17.30
2023-05-19T10:54:51.346Z,17.60
2023-05-19T10:57:26.031Z,17.60
2023-05-19T10:59:53.930Z,17.30
2023-05-19T11:02:41.300Z,16.90
2023-05-19T11:05:10.752Z,16.40
2023-05-19T11:07:42.385Z,15.80
2023-05-19T11:10:11.359Z,15.50
2023-05-19T11:12:44.175Z,15.40
2023-05-19T11:15:14.553Z,15.30
2023-05-19T11:17:48.281Z,15.50
2023-05-19T11:20:23.477Z,15.80
2023-05-19T11:23:17.988Z,16.50
2023-05-19T11:25:48.141Z,17.00
2023-05-19T11:28:19.170Z,17.30
2023-05-19T11:30:50.360Z,17.40
2023-05-19T11:33:20.890Z,17.50
2023-05-19T11:35:49.883Z,17.20
2023-05-19T11:38:19.587Z,17.20
2023-05-19T11:40:49.733Z,17.10
2023-05-19T11:43:17.672Z,17.00
2023-05-19T11:45:46.895Z,17.20
2023-05-19T11:48:15.845Z,17.40
2023-05-19T11:50:46.772Z,17.40
2023-05-19T11:53:15.215Z,17.50
2023-05-19T11:55:48.092Z,17.50
2023-05-19T11:58:16.600Z,17.50
2023-05-19T12:00:47.534Z,17.80
2023-05-19T12:03:17.282Z,18.10
2023-05-19T12:05:49.406Z,18.20
2023-05-19T12:08:18.654Z,18.10
2023-05-19T12:10:50.404Z,18.20
2023-05-19T12:13:18.399Z,18.50
2023-05-19T12:15:46.702Z,18.30
2023-05-19T12:18:14.765Z,18.40
2023-05-19T12:20:42.777Z,18.50
2023-05-19T12:23:13.064Z,18.50
2023-05-19T12:25:41.105Z,18.30
2023-05-19T12:28:09.093Z,17.60
2023-05-19T12:30:37.272Z,17.50
2023-05-19T12:33:05.774Z,17.50
2023-05-19T12:35:34.502Z,17.40
2023-05-19T12:38:07.343Z,17.10
2023-05-19T12:40:40.205Z,16.70
2023-05-19T12:43:09.737Z,16.30
2023-05-19T12:45:38.867Z,16.00
2023-05-19T12:48:12.446Z,15.80
2023-05-19T12:50:40.792Z,15.60
2023-05-19T12:53:09.977Z,15.50
2023-05-19T12:55:44.066Z,15.40
2023-05-19T12:58:12.541Z,15.30
2023-05-19T13:00:47.329Z,15.40
2023-05-19T13:03:17.426Z,15.60
2023-05-19T13:05:47.567Z,15.80
2023-05-19T13:08:17.190Z,15.90
2023-05-19T13:10:47.671Z,16.10
2023-05-19T13:13:15.701Z,16.10
2023-05-19T13:15:45.936Z,16.10
2023-05-19T13:18:15.363Z,16.00
2023-05-19T13:20:44.785Z,15.90
2023-05-19T13:23:12.985Z,15.90
2023-05-19T13:25:41.182Z,15.80
2023-05-19T13:28:10.812Z,15.70
2023-05-19T13:30:42.044Z,15.70
2023-05-19T13:33:10.291Z,15.70
2023-05-19T13:35:38.924Z,15.60
2023-05-19T13:38:08.592Z,15.50
2023-05-19T13:40:36.828Z,15.40
2023-05-19T13:43:06.022Z,15.30
2023-05-19T13:45:35.542Z,15.30
2023-05-19T13:48:03.647Z,15.30
2023-05-19T13:50:31.669Z,15.40
2023-05-19T13:52:59.774Z,15.60
2023-05-19T13:55:29.603Z,15.60
2023-05-19T13:57:57.589Z,15.60
2023-05-19T14:00:25.725Z,15.60
2023-05-19T14:02:55.173Z,15.50
2023-05-19T14:05:24.320Z,15.60
2023-05-19T14:07:52.201Z,15.90
2023-05-19T14:10:20.129Z,16.10
2023-05-19T14:13:12.358Z,16.10
2023-05-19T14:15:38.089Z,16.20
2023-05-19T14:18:07.740Z,16.00
2023-05-19T14:20:36.163Z,16.00
2023-05-19T14:23:04.386Z,16.10
2023-05-19T14:25:32.366Z,16.20
2023-05-19T14:28:00.341Z,16.10
2023-05-19T14:30:28.381Z,16.10
2023-05-19T14:32:56.344Z,16.00
2023-05-19T14:35:26.427Z,16.00
2023-05-19T14:37:54.859Z,16.00
2023-05-19T14:40:22.790Z,16.10
2023-05-19T14:42:50.721Z,16.20
2023-05-19T14:45:18.693Z,16.20
2023-05-19T14:47:47.741Z,16.20
2023-05-19T14:50:16.070Z,16.10
2023-05-19T14:52:45.414Z,16.10
2023-05-19T14:55:13.444Z,16.10
2023-05-19T14:57:41.379Z,16.00
2023-05-19T15:00:10.275Z,15.90
2023-05-19T15:02:38.354Z,15.90
2023-05-19T15:05:06.932Z,15.90
2023-05-19T15:07:34.899Z,15.90
2023-05-19T15:10:04.526Z,15.80
2023-05-19T15:12:32.498Z,15.90
2023-05-19T15:15:00.579Z,16.00
2023-05-19T15:17:28.523Z,16.20
2023-05-19T15:19:56.451Z,16.40
2023-05-19T15:22:24.410Z,16.70
2023-05-19T15:24:52.299Z,16.90
2023-05-19T15:27:21.840Z,17.20
2023-05-19T15:29:49.755Z,17.50
2023-05-19T15:32:17.716Z,17.70
2023-05-19T15:34:45.763Z,17.80
2023-05-19T15:37:13.714Z,17.80
2023-05-19T15:39:41.638Z,17.90
2023-05-19T15:42:09.588Z,18.20
2023-05-19T15:44:38.915Z,18.30
2023-05-19T15:47:07.064Z,18.40
2023-05-19T15:49:34.996Z,18.60
2023-05-19T15:52:04.078Z,18.60
2023-05-19T15:54:32.476Z,18.50
2023-05-19T15:57:00.557Z,18.40
2023-05-19T15:59:28.547Z,18.50
2023-05-19T16:01:58.393Z,18.30
2023-05-19T16:04:29.296Z,17.90
2023-05-19T16:06:57.524Z,17.70
2023-05-19T16:09:27.611Z,17.70
2023-05-19T16:11:55.555Z,17.80
2023-05-19T16:14:24.510Z,18.10
2023-05-19T16:16:52.462Z,18.00
2023-05-19T16:19:21.919Z,18.10
2023-05-19T16:21:49.845Z,18.10
2023-05-19T16:24:17.812Z,18.20
2023-05-19T16:26:46.285Z,18.30
2023-05-19T16:29:14.251Z,18.40
2023-05-19T16:31:42.239Z,18.40
2023-05-19T16:34:10.343Z,18.30
2023-05-19T16:36:39.589Z,18.30
2023-05-19T16:39:07.561Z,18.40
2023-05-19T16:41:35.493Z,18.30
2023-05-19T16:44:03.537Z,18.30
2023-05-19T16:46:31.843Z,18.40
2023-05-19T16:48:59.880Z,18.30
2023-05-19T16:51:27.896Z,18.20
2023-05-19T16:53:57.128Z,18.20
2023-05-19T16:56:25.152Z,18.40
2023-05-19T16:58:54.597Z,18.50
2023-05-19T17:01:22.698Z,18.50
2023-05-19T17:03:50.608Z,18.70
2023-05-19T17:06:18.774Z,18.80
2023-05-19T17:08:46.774Z,18.90
2023-05-19T17:11:16.066Z,19.10
2023-05-19T17:13:46.284Z,19.20
2023-05-19T17:16:14.304Z,19.20
2023-05-19T17:18:43.676Z,19.20
2023-05-19T17:21:11.816Z,19.10
2023-05-19T17:23:39.919Z,18.90
2023-05-19T17:26:07.973Z,18.80
2023-05-19T17:28:37.286Z,18.60
2023-05-19T17:31:12.570Z,18.30
2023-05-19T17:33:41.212Z,18.20
2023-05-19T17:36:09.545Z,17.90
2023-05-19T17:38:40.170Z,17.70
2023-05-19T17:41:10.669Z,17.40
2023-05-19T17:43:41.097Z,17.10
2023-05-19T17:46:09.604Z,16.90
2023-05-19T17:48:37.669Z,16.60
2023-05-19T17:51:07.003Z,16.50
2023-05-19T17:53:36.516Z,16.40
2023-05-19T17:56:06.511Z,16.30
2023-05-19T17:58:34.978Z,16.30
2023-05-19T18:01:04.643Z,16.20
2023-05-19T18:03:33.471Z,16.00
2023-05-19T18:06:02.348Z,15.80
2023-05-19T18:08:31.634Z,15.70
2023-05-19T18:11:00.054Z,15.60
2023-05-19T18:13:27.980Z,15.50
2023-05-19T18:15:57.022Z,15.50
2023-05-19T18:18:26.373Z,15.40
2023-05-19T18:20:54.903Z,15.40
2023-05-19T18:23:22.890Z,15.30
2023-05-19T18:25:51.739Z,15.30
2023-05-19T18:28:19.712Z,15.20
2023-05-19T18:30:47.873Z,15.10
2023-05-19T18:33:16.310Z,15.00
2023-05-19T18:35:47.122Z,14.90
2023-05-19T18:38:15.162Z,14.80
2023-05-19T18:40:44.376Z,14.60
2023-05-19T18:43:12.451Z,14.50
2023-05-19T18:46:04.438Z,14.40
2023-05-19T18:48:33.152Z,14.20
2023-05-19T18:51:03.693Z,14.00
2023-05-19T18:53:33.922Z,13.80
2023-05-19T18:56:01.898Z,13.60
2023-05-19T18:58:29.853Z,13.50
2023-05-19T19:01:00.185Z,13.40
2023-05-19T19:03:28.810Z,13.30
2023-05-19T19:05:56.820Z,13.20
2023-05-19T19:08:26.598Z,13.00
2023-05-19T19:10:59.189Z,13.00
2023-05-19T19:13:27.658Z,12.90
2023-05-19T19:15:55.644Z,12.80
2023-05-19T19:18:23.663Z,12.80
2023-05-19T19:20:51.678Z,12.70
2023-05-19T19:23:19.648Z,12.60
2023-05-19T19:25:49.028Z,12.50
2023-05-19T19:28:17.246Z,12.50
2023-05-19T19:30:46.479Z,12.60
2023-05-19T19:33:14.677Z,12.80
2023-05-19T19:35:42.614Z,12.70
2023-05-19T19:38:10.669Z,12.60
2023-05-19T19:40:38.700Z,12.50
2023-05-19T19:43:07.990Z,12.60
2023-05-19T19:45:39.013Z,12.50
2023-05-19T19:48:07.806Z,12.70
2023-05-19T19:50:36.453Z,12.80
2023-05-19T19:53:04.609Z,12.90
2023-05-19T19:55:32.812Z,13.00
2023-05-19T19:58:00.786Z,13.10
2023-05-19T20:00:30.057Z,13.20
2023-05-19T20:03:04.990Z,13.20
2023-05-19T20:05:33.945Z,13.30
2023-05-19T20:08:01.958Z,13.40
2023-05-19T20:10:29.947Z,13.40
2023-05-19T20:12:58.865Z,13.40
2023-05-19T20:15:26.929Z,13.40
2023-05-19T20:17:56.328Z,13.40
2023-05-19T20:20:24.341Z,13.30
2023-05-19T20:22:52.325Z,13.30
2023-05-19T20:25:20.381Z,13.30
2023-05-19T20:27:48.309Z,13.20
2023-05-19T20:30:16.327Z,13.20
2023-05-19T20:32:46.371Z,13.20
2023-05-19T20:35:16.027Z,13.20
2023-05-19T20:37:49.387Z,13.30
2023-05-19T20:40:33.801Z,13.30
2023-05-19T20:43:01.703Z,13.30
2023-05-19T20:45:29.660Z,13.30
2023-05-19T20:47:59.387Z,13.30
2023-05-19T20:50:28.948Z,13.20
2023-05-19T20:52:56.884Z,13.30
2023-05-19T20:55:24.808Z,13.40
2023-05-19T20:57:52.825Z,13.40
2023-05-19T21:00:21.252Z,13.40
2023-05-19T21:02:54.417Z,13.40
2023-05-19T21:05:22.516Z,13.40
2023-05-19T21:07:51.850Z,13.30
2023-05-19T21:10:20.034Z,13.20
2023-05-19T21:12:54.082Z,13.10
2023-05-19T21:15:22.233Z,13.00
2023-05-19T21:17:50.237Z,13.00
2023-05-19T21:20:18.175Z,12.90
2023-05-19T21:22:46.192Z,12.90
2023-05-19T21:25:16.957Z,12.80
2023-05-19T21:27:46.252Z,12.80
2023-05-19T21:30:14.843Z,12.80
2023-05-19T21:32:42.805Z,12.80
2023-05-19T21:35:10.735Z,13.00
2023-05-19T21:37:38.656Z,13.00
2023-05-19T21:40:07.990Z,12.90
2023-05-19T21:42:37.331Z,12.80
2023-05-19T21:45:06.504Z,12.80
2023-05-19T21:47:36.114Z,12.80
2023-05-19T21:50:04.096Z,12.80
2023-05-19T21:52:32.278Z,12.70
2023-05-19T21:55:00.200Z,12.60
2023-05-19T21:57:28.082Z,12.50
2023-05-19T21:59:57.709Z,12.30
2023-05-19T22:02:25.708Z,12.30
2023-05-19T22:04:53.707Z,12.20
2023-05-19T22:07:26.850Z,12.10
2023-05-19T22:09:55.189Z,11.90
2023-05-19T22:12:24.668Z,11.90
2023-05-19T22:14:55.766Z,11.70
2023-05-19T22:17:25.110Z,11.60
2023-05-19T22:19:53.116Z,11.50
2023-05-19T22:22:21.210Z,11.40
2023-05-19T22:24:49.468Z,11.30
2023-05-19T22:27:17.405Z,11.20
2023-05-19T22:29:54.773Z,11.20
2023-05-19T22:32:24.437Z,11.10
2023-05-19T22:34:52.495Z,11.00
2023-05-19T22:37:20.443Z,10.80
2023-05-19T22:39:48.432Z,10.70
2023-05-19T22:42:16.357Z,10.60
2023-05-19T22:44:44.549Z,10.50
2023-05-19T22:47:13.800Z,10.40
2023-05-19T22:49:43.585Z,10.30
2023-05-19T22:52:12.278Z,10.20
2023-05-19T22:54:40.278Z,10.20
2023-05-19T22:57:08.384Z,10.50
2023-05-19T22:59:38.205Z,10.60
2023-05-19T23:02:06.598Z,10.60
2023-05-19T23:04:34.955Z,10.60
2023-05-19T23:07:04.420Z,10.50
2023-05-19T23:09:32.332Z,10.50
2023-05-19T23:12:00.370Z,10.50
2023-05-19T23:14:28.416Z,10.40
2023-05-19T23:16:56.428Z,10.40
2023-05-19T23:19:24.603Z,10.30
2023-05-19T23:21:52.618Z,10.20
2023-05-19T23:24:22.533Z,10.10
2023-05-19T23:26:50.666Z,10.10
2023-05-19T23:29:18.610Z,10.10
2023-05-19T23:31:46.685Z,10.10
2023-05-19T23:34:14.706Z,10.30
2023-05-19T23:36:42.580Z,10.30
2023-05-19T23:39:10.616Z,10.30
2023-05-19T23:41:39.914Z,10.40
2023-05-19T23:44:09.220Z,10.40
2023-05-19T23:46:37.166Z,10.40
2023-05-19T23:49:05.200Z,10.50
2023-05-19T23:51:33.167Z,10.50
2023-05-19T23:54:01.087Z,10.40
2023-05-19T23:56:29.066Z,10.30
2023-05-19T23:58:58.370Z,10.30
